sensor_id;sensor_type;location;lat;lon;timestamp;P1;durP1;ratioP1;P2;durP2;ratioP2
16922;SDS011;8578;50.938;13.556;2024-03-23T00:54:45;9.90;;;4.40;;
16922;SDS011;8578;50.938;13.556;2024-03-23T00:57:11;7.20;;;4.23;;
16922;SDS011;8578;50.938;13.556;2024-03-23T00:59:37;6.60;;;4.57;;
16922;SDS011;8578;50.938;13.556;2024-03-23T01:02:03;6.63;;;4.47;;
16922;SDS011;8578;50.938;13.556;2024-03-23T01:04:29;6.67;;;4.57;;
16922;SDS011;8578;50.938;13.556;2024-03-23T01:06:55;5.90;;;4.27;;
16922;SDS011;8578;50.938;13.556;2024-03-23T01:09:21;7.50;;;4.40;;
16922;SDS011;8578;50.938;13.556;2024-03-23T01:11:49;7.20;;;4.83;;
16922;SDS011;8578;50.938;13.556;2024-03-23T01:14:15;9.83;;;5.50;;
16922;SDS011;8578;50.938;13.556;2024-03-23T01:16:41;5.57;;;4.27;;
16922;SDS011;8578;50.938;13.556;2024-03-23T01:19:07;8.63;;;4.57;;
16922;SDS011;8578;50.938;13.556;2024-03-23T01:21:33;9.13;;;4.97;;
16922;SDS011;8578;50.938;13.556;2024-03-23T01:24:00;7.80;;;5.40;;
16922;SDS011;8578;50.938;13.556;2024-03-23T01:26:27;6.43;;;4.70;;
16922;SDS011;8578;50.938;13.556;2024-03-23T01:28:54;8.13;;;4.90;;
16922;SDS011;8578;50.938;13.556;2024-03-23T01:31:22;7.80;;;4.73;;
16922;SDS011;8578;50.938;13.556;2024-03-23T01:33:47;8.20;;;4.90;;
16922;SDS011;8578;50.938;13.556;2024-03-23T01:36:14;8.07;;;5.90;;
16922;SDS011;8578;50.938;13.556;2024-03-23T01:38:39;9.27;;;6.30;;
16922;SDS011;8578;50.938;13.556;2024-03-23T01:41:06;9.97;;;6.83;;
16922;SDS011;8578;50.938;13.556;2024-03-23T01:43:41;10.70;;;6.77;;
16922;SDS011;8578;50.938;13.556;2024-03-23T01:46:09;9.83;;;6.47;;
16922;SDS011;8578;50.938;13.556;2024-03-23T01:48:35;9.83;;;6.77;;
16922;SDS011;8578;50.938;13.556;2024-03-23T01:51:02;12.47;;;6.80;;
16922;SDS011;8578;50.938;13.556;2024-03-23T01:53:29;9.83;;;6.27;;
16922;SDS011;8578;50.938;13.556;2024-03-23T01:55:55;9.47;;;5.90;;
16922;SDS011;8578;50.938;13.556;2024-03-23T01:58:22;10.00;;;5.53;;
16922;SDS011;8578;50.938;13.556;2024-03-23T02:00:48;9.63;;;5.47;;
16922;SDS011;8578;50.938;13.556;2024-03-23T02:03:26;8.50;;;5.40;;
16922;SDS011;8578;50.938;13.556;2024-03-23T02:05:55;7.00;;;4.40;;
16922;SDS011;8578;50.938;13.556;2024-03-23T02:08:22;6.80;;;4.73;;
16922;SDS011;8578;50.938;13.556;2024-03-23T02:10:48;7.47;;;5.23;;
16922;SDS011;8578;50.938;13.556;2024-03-23T02:13:14;7.80;;;4.93;;
16922;SDS011;8578;50.938;13.556;2024-03-23T02:15:41;7.50;;;4.83;;
16922;SDS011;8578;50.938;13.556;2024-03-23T02:18:07;8.93;;;4.87;;
16922;SDS011;8578;50.938;13.556;2024-03-23T02:20:36;7.80;;;4.60;;
16922;SDS011;8578;50.938;13.556;2024-03-23T02:23:03;6.33;;;4.57;;
16922;SDS011;8578;50.938;13.556;2024-03-23T02:25:31;8.50;;;5.67;;
16922;SDS011;8578;50.938;13.556;2024-03-23T02:27:56;12.50;;;6.67;;
16922;SDS011;8578;50.938;13.556;2024-03-23T02:30:24;11.10;;;6.60;;
16922;SDS011;8578;50.938;13.556;2024-03-23T02:32:49;10.77;;;7.47;;
16922;SDS011;8578;50.938;13.556;2024-03-23T02:35:16;16.37;;;8.13;;
16922;SDS011;8578;50.938;13.556;2024-03-23T02:37:41;12.07;;;7.43;;
16922;SDS011;8578;50.938;13.556;2024-03-23T02:40:09;13.23;;;8.00;;
16922;SDS011;8578;50.938;13.556;2024-03-23T02:42:35;13.67;;;8.37;;
16922;SDS011;8578;50.938;13.556;2024-03-23T02:45:02;15.77;;;9.60;;
16922;SDS011;8578;50.938;13.556;2024-03-23T02:47:30;12.37;;;8.77;;
16922;SDS011;8578;50.938;13.556;2024-03-23T02:49:58;13.33;;;7.77;;
16922;SDS011;8578;50.938;13.556;2024-03-23T02:52:23;13.10;;;7.23;;
16922;SDS011;8578;50.938;13.556;2024-03-23T02:54:50;13.23;;;8.23;;
16922;SDS011;8578;50.938;13.556;2024-03-23T02:57:17;13.93;;;8.67;;
16922;SDS011;8578;50.938;13.556;2024-03-23T02:59:43;16.00;;;8.60;;
16922;SDS011;8578;50.938;13.556;2024-03-23T03:02:09;13.43;;;8.60;;
16922;SDS011;8578;50.938;13.556;2024-03-23T03:04:36;12.60;;;7.93;;
16922;SDS011;8578;50.938;13.556;2024-03-23T03:07:02;11.57;;;7.43;;
16922;SDS011;8578;50.938;13.556;2024-03-23T03:09:29;10.30;;;7.17;;
16922;SDS011;8578;50.938;13.556;2024-03-23T03:11:55;10.50;;;7.10;;
16922;SDS011;8578;50.938;13.556;2024-03-23T03:14:23;10.50;;;7.33;;
16922;SDS011;8578;50.938;13.556;2024-03-23T03:16:48;12.13;;;7.40;;
16922;SDS011;8578;50.938;13.556;2024-03-23T03:19:15;11.10;;;7.27;;
16922;SDS011;8578;50.938;13.556;2024-03-23T03:21:41;14.47;;;8.97;;
16922;SDS011;8578;50.938;13.556;2024-03-23T03:24:08;15.90;;;9.77;;
16922;SDS011;8578;50.938;13.556;2024-03-23T03:26:34;16.40;;;9.93;;
16922;SDS011;8578;50.938;13.556;2024-03-23T03:29:02;15.57;;;10.83;;
16922;SDS011;8578;50.938;13.556;2024-03-23T03:31:29;14.63;;;10.20;;
16922;SDS011;8578;50.938;13.556;2024-03-23T03:33:55;17.23;;;10.93;;
16922;SDS011;8578;50.938;13.556;2024-03-23T03:36:21;13.23;;;9.07;;
16922;SDS011;8578;50.938;13.556;2024-03-23T03:38:47;15.17;;;9.40;;
16922;SDS011;8578;50.938;13.556;2024-03-23T03:41:13;15.37;;;9.83;;
16922;SDS011;8578;50.938;13.556;2024-03-23T03:43:39;16.73;;;10.17;;
16922;SDS011;8578;50.938;13.556;2024-03-23T03:46:05;18.27;;;10.13;;
16922;SDS011;8578;50.938;13.556;2024-03-23T03:48:34;15.43;;;10.83;;
16922;SDS011;8578;50.938;13.556;2024-03-23T03:51:00;16.90;;;10.47;;
16922;SDS011;8578;50.938;13.556;2024-03-23T03:53:26;20.23;;;11.43;;
16922;SDS011;8578;50.938;13.556;2024-03-23T03:55:52;19.23;;;11.83;;
16922;SDS011;8578;50.938;13.556;2024-03-23T03:58:19;19.77;;;12.33;;
16922;SDS011;8578;50.938;13.556;2024-03-23T04:00:44;19.83;;;11.27;;
16922;SDS011;8578;50.938;13.556;2024-03-23T04:03:11;20.37;;;12.53;;
16922;SDS011;8578;50.938;13.556;2024-03-23T04:05:37;23.13;;;13.90;;
16922;SDS011;8578;50.938;13.556;2024-03-23T04:08:04;21.33;;;13.17;;
16922;SDS011;8578;50.938;13.556;2024-03-23T04:10:30;24.47;;;13.10;;
16922;SDS011;8578;50.938;13.556;2024-03-23T04:12:56;21.40;;;12.97;;
16922;SDS011;8578;50.938;13.556;2024-03-23T04:15:22;23.07;;;13.67;;
16922;SDS011;8578;50.938;13.556;2024-03-23T04:17:48;19.53;;;12.40;;
16922;SDS011;8578;50.938;13.556;2024-03-23T04:20:14;20.40;;;13.07;;
16922;SDS011;8578;50.938;13.556;2024-03-23T04:22:43;20.73;;;13.10;;
16922;SDS011;8578;50.938;13.556;2024-03-23T04:25:09;21.00;;;12.93;;
16922;SDS011;8578;50.938;13.556;2024-03-23T04:27:36;21.23;;;12.80;;
16922;SDS011;8578;50.938;13.556;2024-03-23T04:30:01;23.37;;;12.87;;
16922;SDS011;8578;50.938;13.556;2024-03-23T04:32:29;20.90;;;13.07;;
16922;SDS011;8578;50.938;13.556;2024-03-23T04:34:55;22.90;;;13.73;;
16922;SDS011;8578;50.938;13.556;2024-03-23T04:37:23;22.80;;;13.33;;
16922;SDS011;8578;50.938;13.556;2024-03-23T04:39:51;26.07;;;15.20;;
16922;SDS011;8578;50.938;13.556;2024-03-23T04:42:18;23.63;;;13.80;;
16922;SDS011;8578;50.938;13.556;2024-03-23T04:44:44;24.63;;;13.90;;
16922;SDS011;8578;50.938;13.556;2024-03-23T04:47:11;23.67;;;12.30;;
16922;SDS011;8578;50.938;13.556;2024-03-23T04:49:38;22.43;;;14.10;;
16922;SDS011;8578;50.938;13.556;2024-03-23T04:52:04;22.93;;;13.53;;
16922;SDS011;8578;50.938;13.556;2024-03-23T04:54:31;25.20;;;14.47;;
16922;SDS011;8578;50.938;13.556;2024-03-23T04:57:00;23.43;;;13.03;;
16922;SDS011;8578;50.938;13.556;2024-03-23T04:59:26;22.07;;;13.33;;
16922;SDS011;8578;50.938;13.556;2024-03-23T05:01:53;24.80;;;15.27;;
16922;SDS011;8578;50.938;13.556;2024-03-23T05:04:20;23.73;;;14.13;;
16922;SDS011;8578;50.938;13.556;2024-03-23T05:06:46;20.80;;;13.87;;
16922;SDS011;8578;50.938;13.556;2024-03-23T05:09:13;24.87;;;14.63;;
16922;SDS011;8578;50.938;13.556;2024-03-23T05:11:38;24.27;;;13.80;;
16922;SDS011;8578;50.938;13.556;2024-03-23T05:14:06;19.87;;;12.27;;
16922;SDS011;8578;50.938;13.556;2024-03-23T05:16:32;20.67;;;12.43;;
16922;SDS011;8578;50.938;13.556;2024-03-23T05:18:59;21.00;;;12.43;;
16922;SDS011;8578;50.938;13.556;2024-03-23T05:21:24;20.17;;;12.33;;
16922;SDS011;8578;50.938;13.556;2024-03-23T05:23:53;18.03;;;12.00;;
16922;SDS011;8578;50.938;13.556;2024-03-23T05:26:18;21.57;;;14.10;;
16922;SDS011;8578;50.938;13.556;2024-03-23T05:28:45;26.67;;;16.67;;
16922;SDS011;8578;50.938;13.556;2024-03-23T05:31:12;32.70;;;18.50;;
16922;SDS011;8578;50.938;13.556;2024-03-23T05:33:38;19.60;;;12.40;;
16922;SDS011;8578;50.938;13.556;2024-03-23T05:36:04;22.83;;;13.70;;
16922;SDS011;8578;50.938;13.556;2024-03-23T05:38:31;22.67;;;14.27;;
16922;SDS011;8578;50.938;13.556;2024-03-23T05:40:57;23.97;;;15.43;;
16922;SDS011;8578;50.938;13.556;2024-03-23T05:43:26;24.50;;;14.70;;
16922;SDS011;8578;50.938;13.556;2024-03-23T05:45:54;21.97;;;13.20;;
16922;SDS011;8578;50.938;13.556;2024-03-23T05:48:21;20.50;;;12.17;;
16922;SDS011;8578;50.938;13.556;2024-03-23T05:50:48;18.67;;;12.20;;
16922;SDS011;8578;50.938;13.556;2024-03-23T05:53:14;19.80;;;12.20;;
16922;SDS011;8578;50.938;13.556;2024-03-23T05:55:40;21.27;;;12.63;;
16922;SDS011;8578;50.938;13.556;2024-03-23T05:58:06;21.60;;;12.17;;
16922;SDS011;8578;50.938;13.556;2024-03-23T06:00:32;20.63;;;12.87;;
16922;SDS011;8578;50.938;13.556;2024-03-23T06:02:58;21.50;;;12.77;;
16922;SDS011;8578;50.938;13.556;2024-03-23T06:05:26;20.60;;;12.70;;
16922;SDS011;8578;50.938;13.556;2024-03-23T06:07:52;22.90;;;13.10;;
16922;SDS011;8578;50.938;13.556;2024-03-23T06:10:20;20.30;;;13.27;;
16922;SDS011;8578;50.938;13.556;2024-03-23T06:12:45;18.60;;;12.37;;
16922;SDS011;8578;50.938;13.556;2024-03-23T06:15:12;19.93;;;13.50;;
16922;SDS011;8578;50.938;13.556;2024-03-23T06:17:37;20.10;;;12.50;;
16922;SDS011;8578;50.938;13.556;2024-03-23T06:20:04;19.60;;;12.97;;
16922;SDS011;8578;50.938;13.556;2024-03-23T06:22:32;24.33;;;15.07;;
16922;SDS011;8578;50.938;13.556;2024-03-23T06:25:00;23.23;;;13.67;;
16922;SDS011;8578;50.938;13.556;2024-03-23T06:27:25;16.33;;;11.17;;
16922;SDS011;8578;50.938;13.556;2024-03-23T06:29:52;26.47;;;17.93;;
16922;SDS011;8578;50.938;13.556;2024-03-23T06:32:17;20.60;;;14.27;;
16922;SDS011;8578;50.938;13.556;2024-03-23T06:34:44;17.43;;;11.90;;
16922;SDS011;8578;50.938;13.556;2024-03-23T06:37:11;17.23;;;10.47;;
16922;SDS011;8578;50.938;13.556;2024-03-23T06:39:40;12.17;;;8.97;;
16922;SDS011;8578;50.938;13.556;2024-03-23T06:42:05;15.33;;;9.97;;
16922;SDS011;8578;50.938;13.556;2024-03-23T06:44:33;14.07;;;9.63;;
16922;SDS011;8578;50.938;13.556;2024-03-23T06:46:58;12.83;;;9.13;;
16922;SDS011;8578;50.938;13.556;2024-03-23T06:49:25;14.03;;;8.83;;
16922;SDS011;8578;50.938;13.556;2024-03-23T06:51:51;14.70;;;10.07;;
16922;SDS011;8578;50.938;13.556;2024-03-23T06:54:19;13.47;;;9.87;;
16922;SDS011;8578;50.938;13.556;2024-03-23T06:56:46;13.70;;;9.60;;
16922;SDS011;8578;50.938;13.556;2024-03-23T06:59:12;13.87;;;9.27;;
16922;SDS011;8578;50.938;13.556;2024-03-23T07:01:38;14.83;;;9.20;;
16922;SDS011;8578;50.938;13.556;2024-03-23T07:04:04;187.27;;;115.33;;
16922;SDS011;8578;50.938;13.556;2024-03-23T07:06:30;216.03;;;120.23;;
16922;SDS011;8578;50.938;13.556;2024-03-23T07:08:57;68.30;;;41.73;;
16922;SDS011;8578;50.938;13.556;2024-03-23T07:11:22;44.13;;;29.07;;
16922;SDS011;8578;50.938;13.556;2024-03-23T07:13:51;27.43;;;18.40;;
16922;SDS011;8578;50.938;13.556;2024-03-23T07:16:16;19.73;;;13.00;;
16922;SDS011;8578;50.938;13.556;2024-03-23T07:18:44;17.80;;;10.77;;
16922;SDS011;8578;50.938;13.556;2024-03-23T07:21:09;16.37;;;10.23;;
16922;SDS011;8578;50.938;13.556;2024-03-23T07:23:41;13.90;;;9.00;;
16922;SDS011;8578;50.938;13.556;2024-03-23T07:26:07;11.57;;;7.90;;
16922;SDS011;8578;50.938;13.556;2024-03-23T07:28:34;11.03;;;7.30;;
16922;SDS011;8578;50.938;13.556;2024-03-23T07:31:03;9.63;;;6.83;;
16922;SDS011;8578;50.938;13.556;2024-03-23T07:33:30;8.90;;;6.30;;
16922;SDS011;8578;50.938;13.556;2024-03-23T07:35:56;8.93;;;6.13;;
16922;SDS011;8578;50.938;13.556;2024-03-23T07:38:23;8.27;;;5.80;;
16922;SDS011;8578;50.938;13.556;2024-03-23T07:40:49;7.30;;;5.50;;
16922;SDS011;8578;50.938;13.556;2024-03-23T07:43:20;8.17;;;5.50;;
16922;SDS011;8578;50.938;13.556;2024-03-23T07:45:50;9.13;;;6.60;;
16922;SDS011;8578;50.938;13.556;2024-03-23T07:48:20;13.80;;;9.23;;
16922;SDS011;8578;50.938;13.556;2024-03-23T07:50:55;44.70;;;19.73;;
16922;SDS011;8578;50.938;13.556;2024-03-23T07:53:22;50.23;;;22.57;;
16922;SDS011;8578;50.938;13.556;2024-03-23T07:55:52;27.40;;;18.87;;
16922;SDS011;8578;50.938;13.556;2024-03-23T07:58:18;22.90;;;15.00;;
16922;SDS011;8578;50.938;13.556;2024-03-23T08:00:44;25.43;;;16.37;;
16922;SDS011;8578;50.938;13.556;2024-03-23T08:03:10;16.07;;;11.13;;
16922;SDS011;8578;50.938;13.556;2024-03-23T08:05:37;10.87;;;9.03;;
16922;SDS011;8578;50.938;13.556;2024-03-23T08:08:05;8.73;;;6.43;;
16922;SDS011;8578;50.938;13.556;2024-03-23T08:10:31;7.67;;;5.50;;
16922;SDS011;8578;50.938;13.556;2024-03-23T08:12:57;7.27;;;4.80;;
16922;SDS011;8578;50.938;13.556;2024-03-23T08:15:23;7.97;;;5.20;;
16922;SDS011;8578;50.938;13.556;2024-03-23T08:17:49;4.60;;;3.60;;
16922;SDS011;8578;50.938;13.556;2024-03-23T08:20:15;5.17;;;3.30;;
16922;SDS011;8578;50.938;13.556;2024-03-23T08:22:44;4.73;;;3.07;;
16922;SDS011;8578;50.938;13.556;2024-03-23T08:25:10;4.30;;;3.20;;
16922;SDS011;8578;50.938;13.556;2024-03-23T08:27:37;4.60;;;3.40;;
16922;SDS011;8578;50.938;13.556;2024-03-23T08:30:03;4.80;;;2.73;;
16922;SDS011;8578;50.938;13.556;2024-03-23T08:32:29;5.47;;;3.10;;
16922;SDS011;8578;50.938;13.556;2024-03-23T08:34:56;4.13;;;3.03;;
16922;SDS011;8578;50.938;13.556;2024-03-23T08:37:24;4.87;;;3.67;;
16922;SDS011;8578;50.938;13.556;2024-03-23T08:39:52;5.03;;;4.00;;
16922;SDS011;8578;50.938;13.556;2024-03-23T08:42:18;7.37;;;4.03;;
16922;SDS011;8578;50.938;13.556;2024-03-23T08:44:44;5.07;;;4.03;;
16922;SDS011;8578;50.938;13.556;2024-03-23T08:47:15;4.53;;;3.83;;
16922;SDS011;8578;50.938;13.556;2024-03-23T08:49:42;7.23;;;4.43;;
16922;SDS011;8578;50.938;13.556;2024-03-23T08:52:08;5.37;;;4.17;;
16922;SDS011;8578;50.938;13.556;2024-03-23T08:54:34;5.67;;;4.90;;
16922;SDS011;8578;50.938;13.556;2024-03-23T08:57:01;9.00;;;5.40;;
16922;SDS011;8578;50.938;13.556;2024-03-23T08:59:28;6.57;;;5.10;;
16922;SDS011;8578;50.938;13.556;2024-03-23T09:01:54;8.27;;;5.03;;
16922;SDS011;8578;50.938;13.556;2024-03-23T09:04:20;10.23;;;5.47;;
16922;SDS011;8578;50.938;13.556;2024-03-23T09:06:46;9.37;;;6.27;;
16922;SDS011;8578;50.938;13.556;2024-03-23T09:09:14;9.80;;;6.70;;
16922;SDS011;8578;50.938;13.556;2024-03-23T09:11:39;9.73;;;7.10;;
16922;SDS011;8578;50.938;13.556;2024-03-23T09:14:07;9.90;;;6.73;;
16922;SDS011;8578;50.938;13.556;2024-03-23T09:16:34;9.33;;;6.70;;
16922;SDS011;8578;50.938;13.556;2024-03-23T09:19:00;10.60;;;7.60;;
16922;SDS011;8578;50.938;13.556;2024-03-23T09:21:27;9.97;;;6.30;;
16922;SDS011;8578;50.938;13.556;2024-03-23T09:23:53;10.60;;;6.57;;
16922;SDS011;8578;50.938;13.556;2024-03-23T09:26:19;8.00;;;6.07;;
16922;SDS011;8578;50.938;13.556;2024-03-23T09:28:47;8.90;;;6.80;;
16922;SDS011;8578;50.938;13.556;2024-03-23T09:31:14;11.30;;;6.97;;
16922;SDS011;8578;50.938;13.556;2024-03-23T09:33:42;10.37;;;6.80;;
16922;SDS011;8578;50.938;13.556;2024-03-23T09:36:09;9.40;;;6.53;;
16922;SDS011;8578;50.938;13.556;2024-03-23T09:38:36;13.13;;;6.80;;
16922;SDS011;8578;50.938;13.556;2024-03-23T09:41:06;11.77;;;6.20;;
16922;SDS011;8578;50.938;13.556;2024-03-23T09:43:33;10.63;;;6.80;;
16922;SDS011;8578;50.938;13.556;2024-03-23T09:45:59;12.60;;;7.43;;
16922;SDS011;8578;50.938;13.556;2024-03-23T09:48:27;9.23;;;6.43;;
16922;SDS011;8578;50.938;13.556;2024-03-23T09:50:52;8.40;;;4.67;;
16922;SDS011;8578;50.938;13.556;2024-03-23T09:53:19;5.57;;;2.77;;
16922;SDS011;8578;50.938;13.556;2024-03-23T09:55:47;4.13;;;2.67;;
16922;SDS011;8578;50.938;13.556;2024-03-23T09:58:15;2.53;;;1.33;;
16922;SDS011;8578;50.938;13.556;2024-03-23T10:00:41;2.70;;;1.30;;
16922;SDS011;8578;50.938;13.556;2024-03-23T10:03:07;2.53;;;0.70;;
16922;SDS011;8578;50.938;13.556;2024-03-23T10:05:37;1.40;;;0.50;;
16922;SDS011;8578;50.938;13.556;2024-03-23T10:08:16;0.80;;;0.53;;
16922;SDS011;8578;50.938;13.556;2024-03-23T10:10:42;0.53;;;0.30;;
16922;SDS011;8578;50.938;13.556;2024-03-23T10:13:09;0.50;;;0.30;;
16922;SDS011;8578;50.938;13.556;2024-03-23T10:15:36;0.23;;;0.23;;
16922;SDS011;8578;50.938;13.556;2024-03-23T10:18:04;0.37;;;0.23;;
16922;SDS011;8578;50.938;13.556;2024-03-23T10:20:43;0.40;;;0.20;;
16922;SDS011;8578;50.938;13.556;2024-03-23T10:23:15;0.10;;;0.10;;
16922;SDS011;8578;50.938;13.556;2024-03-23T10:25:40;0.23;;;0.10;;
16922;SDS011;8578;50.938;13.556;2024-03-23T10:28:07;0.00;;;0.00;;
16922;SDS011;8578;50.938;13.556;2024-03-23T10:30:32;0.00;;;0.00;;
16922;SDS011;8578;50.938;13.556;2024-03-23T10:33:06;1.60;;;0.20;;
16922;SDS011;8578;50.938;13.556;2024-03-23T10:35:32;0.10;;;0.07;;
16922;SDS011;8578;50.938;13.556;2024-03-23T10:38:01;0.00;;;0.00;;
16922;SDS011;8578;50.938;13.556;2024-03-23T10:40:28;0.07;;;0.00;;
16922;SDS011;8578;50.938;13.556;2024-03-23T10:42:55;0.17;;;0.10;;
16922;SDS011;8578;50.938;13.556;2024-03-23T10:45:22;0.13;;;0.10;;
16922;SDS011;8578;50.938;13.556;2024-03-23T10:47:49;1.07;;;0.10;;
16922;SDS011;8578;50.938;13.556;2024-03-23T10:50:15;0.00;;;0.00;;
16922;SDS011;8578;50.938;13.556;2024-03-23T10:52:41;0.63;;;0.10;;
16922;SDS011;8578;50.938;13.556;2024-03-23T10:55:12;0.10;;;0.10;;
16922;SDS011;8578;50.938;13.556;2024-03-23T10:57:41;0.00;;;0.00;;
16922;SDS011;8578;50.938;13.556;2024-03-23T11:00:08;0.10;;;0.07;;
16922;SDS011;8578;50.938;13.556;2024-03-23T11:02:38;0.00;;;0.00;;
16922;SDS011;8578;50.938;13.556;2024-03-23T11:05:16;0.10;;;0.07;;
16922;SDS011;8578;50.938;13.556;2024-03-23T11:07:54;0.23;;;0.10;;
16922;SDS011;8578;50.938;13.556;2024-03-23T11:10:28;0.10;;;0.10;;
16922;SDS011;8578;50.938;13.556;2024-03-23T11:12:55;0.20;;;0.10;;
16922;SDS011;8578;50.938;13.556;2024-03-23T11:15:21;0.10;;;0.10;;
16922;SDS011;8578;50.938;13.556;2024-03-23T11:18:03;0.20;;;0.20;;
16922;SDS011;8578;50.938;13.556;2024-03-23T11:20:33;0.20;;;0.13;;
16922;SDS011;8578;50.938;13.556;2024-03-23T11:23:00;0.20;;;0.10;;
16922;SDS011;8578;50.938;13.556;2024-03-23T11:25:28;0.10;;;0.00;;
16922;SDS011;8578;50.938;13.556;2024-03-23T11:27:55;0.00;;;0.00;;
16922;SDS011;8578;50.938;13.556;2024-03-23T11:30:22;0.17;;;0.10;;
16922;SDS011;8578;50.938;13.556;2024-03-23T11:32:50;0.00;;;0.00;;
16922;SDS011;8578;50.938;13.556;2024-03-23T11:35:27;0.30;;;0.20;;
16922;SDS011;8578;50.938;13.556;2024-03-23T11:38:01;0.90;;;0.40;;
16922;SDS011;8578;50.938;13.556;2024-03-23T11:40:28;1.20;;;0.87;;
16922;SDS011;8578;50.938;13.556;2024-03-23T11:42:55;1.67;;;1.03;;
16922;SDS011;8578;50.938;13.556;2024-03-23T11:45:21;1.30;;;0.80;;
16922;SDS011;8578;50.938;13.556;2024-03-23T11:47:49;0.73;;;0.53;;
16922;SDS011;8578;50.938;13.556;2024-03-23T11:50:26;0.60;;;0.40;;
16922;SDS011;8578;50.938;13.556;2024-03-23T11:52:53;0.60;;;0.40;;
16922;SDS011;8578;50.938;13.556;2024-03-23T11:55:21;0.60;;;0.50;;
16922;SDS011;8578;50.938;13.556;2024-03-23T11:57:50;0.60;;;0.50;;
16922;SDS011;8578;50.938;13.556;2024-03-23T12:00:21;0.30;;;0.30;;
16922;SDS011;8578;50.938;13.556;2024-03-23T12:02:48;0.67;;;0.30;;
16922;SDS011;8578;50.938;13.556;2024-03-23T12:05:15;0.50;;;0.30;;
16922;SDS011;8578;50.938;13.556;2024-03-23T12:07:42;0.37;;;0.30;;
16922;SDS011;8578;50.938;13.556;2024-03-23T12:10:07;0.60;;;0.57;;
16922;SDS011;8578;50.938;13.556;2024-03-23T12:12:34;1.00;;;0.80;;
16922;SDS011;8578;50.938;13.556;2024-03-23T12:15:03;1.43;;;0.90;;
16922;SDS011;8578;50.938;13.556;2024-03-23T12:17:32;1.17;;;0.67;;
16922;SDS011;8578;50.938;13.556;2024-03-23T12:19:58;0.83;;;0.63;;
16922;SDS011;8578;50.938;13.556;2024-03-23T12:22:24;0.90;;;0.70;;
16922;SDS011;8578;50.938;13.556;2024-03-23T12:24:50;1.03;;;0.90;;
16922;SDS011;8578;50.938;13.556;2024-03-23T12:27:17;1.03;;;0.90;;
16922;SDS011;8578;50.938;13.556;2024-03-23T12:29:43;1.10;;;1.00;;
16922;SDS011;8578;50.938;13.556;2024-03-23T12:32:13;1.40;;;0.80;;
16922;SDS011;8578;50.938;13.556;2024-03-23T12:34:38;1.10;;;1.00;;
16922;SDS011;8578;50.938;13.556;2024-03-23T12:37:05;1.77;;;1.10;;
16922;SDS011;8578;50.938;13.556;2024-03-23T12:39:31;1.73;;;0.53;;
16922;SDS011;8578;50.938;13.556;2024-03-23T12:41:57;1.03;;;0.63;;
16922;SDS011;8578;50.938;13.556;2024-03-23T12:44:23;0.90;;;0.80;;
16922;SDS011;8578;50.938;13.556;2024-03-23T12:46:50;1.43;;;0.90;;
16922;SDS011;8578;50.938;13.556;2024-03-23T12:49:16;1.57;;;0.97;;
16922;SDS011;8578;50.938;13.556;2024-03-23T12:51:46;1.03;;;0.77;;
16922;SDS011;8578;50.938;13.556;2024-03-23T12:54:13;0.60;;;0.60;;
16922;SDS011;8578;50.938;13.556;2024-03-23T12:56:40;0.70;;;0.60;;
16922;SDS011;8578;50.938;13.556;2024-03-23T12:59:07;1.23;;;0.67;;
16922;SDS011;8578;50.938;13.556;2024-03-23T13:01:36;2.10;;;0.67;;
16922;SDS011;8578;50.938;13.556;2024-03-23T13:08:25;0.83;;;0.60;;
16922;SDS011;8578;50.938;13.556;2024-03-23T13:10:52;0.97;;;0.80;;
16922;SDS011;8578;50.938;13.556;2024-03-23T13:13:17;0.83;;;0.70;;
16922;SDS011;8578;50.938;13.556;2024-03-23T13:15:49;0.70;;;0.67;;
16922;SDS011;8578;50.938;13.556;2024-03-23T13:18:15;0.77;;;0.60;;
16922;SDS011;8578;50.938;13.556;2024-03-23T13:20:42;1.63;;;0.70;;
16922;SDS011;8578;50.938;13.556;2024-03-23T13:23:08;0.70;;;0.40;;
16922;SDS011;8578;50.938;13.556;2024-03-23T13:25:36;1.93;;;0.80;;
16922;SDS011;8578;50.938;13.556;2024-03-23T13:28:02;2.10;;;1.07;;
16922;SDS011;8578;50.938;13.556;2024-03-23T13:30:29;0.80;;;0.70;;
16922;SDS011;8578;50.938;13.556;2024-03-23T13:32:54;1.70;;;0.80;;
16922;SDS011;8578;50.938;13.556;2024-03-23T13:35:21;3.00;;;0.87;;
16922;SDS011;8578;50.938;13.556;2024-03-23T13:37:48;1.93;;;0.90;;
16922;SDS011;8578;50.938;13.556;2024-03-23T13:40:15;1.47;;;0.83;;
16922;SDS011;8578;50.938;13.556;2024-03-23T13:42:42;1.00;;;0.73;;
16922;SDS011;8578;50.938;13.556;2024-03-23T13:45:08;0.70;;;0.60;;
16922;SDS011;8578;50.938;13.556;2024-03-23T13:47:43;4.00;;;0.90;;
16922;SDS011;8578;50.938;13.556;2024-03-23T13:50:09;1.53;;;0.73;;
16922;SDS011;8578;50.938;13.556;2024-03-23T13:52:34;3.03;;;1.37;;
16922;SDS011;8578;50.938;13.556;2024-03-23T13:55:01;1.53;;;0.97;;
16922;SDS011;8578;50.938;13.556;2024-03-23T13:57:27;2.20;;;0.80;;
16922;SDS011;8578;50.938;13.556;2024-03-23T13:59:55;1.80;;;0.90;;
16922;SDS011;8578;50.938;13.556;2024-03-23T14:02:22;2.80;;;1.00;;
16922;SDS011;8578;50.938;13.556;2024-03-23T14:04:49;3.60;;;0.97;;
16922;SDS011;8578;50.938;13.556;2024-03-23T14:07:15;1.20;;;0.73;;
16922;SDS011;8578;50.938;13.556;2024-03-23T14:09:43;2.87;;;0.97;;
16922;SDS011;8578;50.938;13.556;2024-03-23T14:12:09;2.37;;;1.23;;
16922;SDS011;8578;50.938;13.556;2024-03-23T14:14:35;2.17;;;0.90;;
16922;SDS011;8578;50.938;13.556;2024-03-23T14:17:02;1.60;;;1.00;;
16922;SDS011;8578;50.938;13.556;2024-03-23T14:19:28;3.07;;;0.93;;
16922;SDS011;8578;50.938;13.556;2024-03-23T14:21:54;2.80;;;1.30;;
16922;SDS011;8578;50.938;13.556;2024-03-23T14:24:20;2.37;;;1.07;;
16922;SDS011;8578;50.938;13.556;2024-03-23T14:26:46;1.97;;;1.20;;
16922;SDS011;8578;50.938;13.556;2024-03-23T14:29:13;3.10;;;1.50;;
16922;SDS011;8578;50.938;13.556;2024-03-23T14:31:39;4.07;;;1.17;;
16922;SDS011;8578;50.938;13.556;2024-03-23T14:34:06;3.53;;;1.23;;
16922;SDS011;8578;50.938;13.556;2024-03-23T14:36:32;4.70;;;1.13;;
16922;SDS011;8578;50.938;13.556;2024-03-23T14:38:58;2.70;;;1.10;;
16922;SDS011;8578;50.938;13.556;2024-03-23T14:41:24;2.47;;;1.20;;
16922;SDS011;8578;50.938;13.556;2024-03-23T14:43:51;1.87;;;1.00;;
16922;SDS011;8578;50.938;13.556;2024-03-23T14:46:18;4.03;;;1.33;;
16922;SDS011;8578;50.938;13.556;2024-03-23T14:48:46;4.13;;;1.70;;
16922;SDS011;8578;50.938;13.556;2024-03-23T14:51:13;3.20;;;1.33;;
16922;SDS011;8578;50.938;13.556;2024-03-23T14:53:40;4.90;;;1.60;;
16922;SDS011;8578;50.938;13.556;2024-03-23T14:56:07;2.23;;;1.20;;
16922;SDS011;8578;50.938;13.556;2024-03-23T14:58:35;3.67;;;1.43;;
16922;SDS011;8578;50.938;13.556;2024-03-23T15:01:01;4.10;;;1.30;;
16922;SDS011;8578;50.938;13.556;2024-03-23T15:03:28;4.20;;;1.33;;
16922;SDS011;8578;50.938;13.556;2024-03-23T15:05:53;3.77;;;1.67;;
16922;SDS011;8578;50.938;13.556;2024-03-23T15:08:22;2.00;;;1.33;;
16922;SDS011;8578;50.938;13.556;2024-03-23T15:10:47;3.53;;;1.40;;
16922;SDS011;8578;50.938;13.556;2024-03-23T15:13:14;3.63;;;1.70;;
16922;SDS011;8578;50.938;13.556;2024-03-23T15:15:41;3.37;;;2.10;;
16922;SDS011;8578;50.938;13.556;2024-03-23T15:18:09;2.90;;;1.60;;
16922;SDS011;8578;50.938;13.556;2024-03-23T15:20:35;3.17;;;1.37;;
16922;SDS011;8578;50.938;13.556;2024-03-23T15:23:02;3.77;;;1.60;;
16922;SDS011;8578;50.938;13.556;2024-03-23T15:25:29;3.00;;;1.83;;
16922;SDS011;8578;50.938;13.556;2024-03-23T15:27:57;4.20;;;1.47;;
16922;SDS011;8578;50.938;13.556;2024-03-23T15:30:24;3.30;;;1.70;;
16922;SDS011;8578;50.938;13.556;2024-03-23T15:32:51;2.17;;;1.50;;
16922;SDS011;8578;50.938;13.556;2024-03-23T15:35:17;2.67;;;1.50;;